Chrysanthemum — C6XO4 — position and weather

sailwx.info

Track history (hours):
 
Tides and Currents Weather Stations Pressure Air Temp Water Temp Dewpoint Dewpoint Depression Visibility Wind Speed Wind Dir Waves Ship Positions

Chrysanthemum

Last reported at 2017-Jan-01 07:33 UTC. Time now 2017-Jan-18 04:07 UTC.
Position N 36°11' E 014°39'.
Warning: this ship's position is 16 days out of date.

Length 244 m; draft 13.2 m.

Type: Ship. MMSI: 311015300.

Date/timePositionNaut miles runAvg speedWind from/ knotsBaromVisibWave heightAir tempDewpointWater temp
2017-Jan-01 07:33N 36°11' E 014°39'1313.0
2017-Jan-01 06:33N 36°17' E 014°24'1313.2
2017-Jan-01 05:34N 36°21' E 014°09'1312.9
2017-Jan-01 04:34N 36°26' E 013°54'1313.0
2017-Jan-01 03:33N 36°30' E 013°38'60212.7
2016-Dec-30 04:16N 36°51' E 001°08'16613.1
2016-Dec-29 15:33N 36°19' W 002°15'1312.5
2016-Dec-29 14:32N 36°17' W 002°30'1312.5
2016-Dec-29 13:32N 36°15' W 002°46'11612.5
2016-Dec-29 04:19N 36°01' W 005°08'1013.3
2016-Dec-29 03:33N 35°59' W 005°20'1312.7
2016-Dec-29 02:33N 35°56' W 005°35'1312.9
2016-Dec-29 01:33N 35°54' W 005°51'21411.3
2016-Dec-28 06:33N 37°29' W 009°51'1313.2
2016-Dec-28 05:33N 37°42' W 009°54'1313.1
2016-Dec-28 04:33N 37°54' W 009°59'1313.0
2016-Dec-28 03:33N 38°07' W 010°02'1313.2
2016-Dec-28 02:33N 38°20' W 010°06'1312.9
2016-Dec-28 01:34N 38°33' W 010°09'1313.3
2016-Dec-28 00:33N 38°46' W 010°12'1313.0
2016-Dec-27 23:33N 38°59' W 010°12'1313.1
2016-Dec-27 22:34N 39°12' W 010°12'1312.9
2016-Dec-27 21:34N 39°25' W 010°12'62012.3
2016-Dec-25 19:12N 49°08' W 005°18'812.8
2016-Dec-25 18:33N 49°12' W 005°07'1312.6
2016-Dec-25 17:31N 49°18' W 004°49'3811.9
2016-Dec-25 14:20N 49°37' W 003°59'911.9
2016-Dec-25 13:33N 49°41' W 003°46'1212.5
2016-Dec-25 12:33N 49°47' W 003°29'1313.4
2016-Dec-25 11:33N 49°54' W 003°11'1413.8
2016-Dec-25 10:33N 49°60' W 002°52'1513.5
2016-Dec-25 09:25N 50°03' W 002°28'3512.1
2016-Dec-25 06:30N 50°14' W 001°36'1010.0
2016-Dec-25 05:32N 50°17' W 001°21'10 9.9
2016-Dec-25 04:33N 50°19' W 001°07'2511.5
2016-Dec-25 02:23N 50°26' W 000°29'1112.8
2016-Dec-25 01:31N 50°29' W 000°12'1313.1
2016-Dec-25 00:33N 50°33' E 000°07'1313.3
2016-Dec-24 23:33N 50°36' E 000°27'2812.5
2016-Dec-24 21:17N 50°51' E 001°05'1011.6
2016-Dec-24 20:26N 50°58' E 001°16'1011.4
2016-Dec-24 19:33N 51°05' E 001°28'1212.4
2016-Dec-24 18:33N 51°12' E 001°43'1413.7
2016-Dec-24 17:33N 51°24' E 001°54'1414.1
2016-Dec-24 16:33N 51°35' E 002°09'1413.6
2016-Dec-24 15:33N 51°45' E 002°24'6211.6
2016-Dec-24 10:13N 52°26' E 003°39'910.8
2016-Dec-24 09:21N 52°30' E 003°53'911.6
2016-Dec-24 08:33N 52°30' E 004°08'9 9.2
2016-Dec-24 07:33N 52°29' E 004°23'8 7.9
2016-Dec-24 06:33N 52°28' E 004°36'1 0.9
2016-Dec-24 05:34N 52°28' E 004°37'6 5.7
2016-Dec-24 04:34N 52°26' E 004°46'1 1.3
2016-Dec-24 03:33N 52°24' E 004°46'0 0.0
2016-Dec-24 02:33N 52°24' E 004°46'0 0.0
2016-Dec-24 01:33N 52°24' E 004°46'0 0.0
2016-Dec-24 00:33N 52°24' E 004°46'0 0.0
2016-Dec-23 23:33N 52°24' E 004°46'0 0.0
2016-Dec-23 22:30N 52°24' E 004°46'0 0.0
2016-Dec-23 21:33N 52°24' E 004°46'0 0.0
2016-Dec-23 20:33N 52°24' E 004°46'0 0.0
2016-Dec-23 19:33N 52°24' E 004°46'0 0.0
2016-Dec-23 18:33N 52°24' E 004°46'0 0.0
2016-Dec-23 17:33N 52°24' E 004°46'0 0.0
2016-Dec-23 16:33N 52°24' E 004°46'0 0.0
2016-Dec-23 15:33N 52°24' E 004°46'0 0.0
2016-Dec-23 14:33N 52°24' E 004°46'0 0.0
2016-Dec-23 13:33N 52°24' E 004°46'0 0.0
2016-Dec-23 12:30N 52°24' E 004°46'0 0.0
2016-Dec-23 11:33N 52°24' E 004°46'0 0.0
2016-Dec-23 10:30N 52°24' E 004°46'0 0.0
2016-Dec-23 09:33N 52°24' E 004°46'0 0.0
2016-Dec-23 08:33N 52°24' E 004°46'0 0.0
2016-Dec-23 07:33N 52°24' E 004°46'0 0.0
2016-Dec-23 06:33N 52°24' E 004°46'0 0.0
2016-Dec-23 05:33N 52°24' E 004°46'0 0.0
2016-Dec-23 04:30N 52°24' E 004°46'0 0.0
2016-Dec-23 03:33N 52°24' E 004°46'0 0.0
2016-Dec-23 02:30N 52°24' E 004°46'0 0.0
2016-Dec-23 01:33N 52°24' E 004°46'0 0.0
2016-Dec-23 00:33N 52°24' E 004°46'0 0.0
2016-Dec-22 23:33N 52°24' E 004°46'0 0.0
2016-Dec-22 22:33N 52°24' E 004°46'0 0.0
2016-Dec-22 21:33N 52°24' E 004°46'0 0.0
2016-Dec-22 20:33N 52°24' E 004°46'0 0.0
2016-Dec-22 19:33N 52°24' E 004°46'0 0.0
2016-Dec-22 18:33N 52°24' E 004°46'0 0.0
2016-Dec-22 17:33N 52°24' E 004°46'0 0.0
2016-Dec-22 16:33N 52°24' E 004°46'0 0.0
2016-Dec-22 15:33N 52°24' E 004°46'0 0.0
2016-Dec-22 14:30N 52°24' E 004°46'0 0.0
2016-Dec-22 13:33N 52°24' E 004°46'0 0.0
2016-Dec-22 12:30N 52°24' E 004°46'0 0.0
2016-Dec-22 11:33N 52°24' E 004°46'0 0.0
2016-Dec-22 10:33N 52°24' E 004°46'0 0.0
2016-Dec-22 09:30N 52°24' E 004°46'0 0.0
2016-Dec-22 08:30N 52°24' E 004°46'  
Track history (hours):
 
Tides and Currents Weather Stations Pressure Air Temp Water Temp Dewpoint Dewpoint Depression Visibility Wind Speed Wind Dir Waves Ship Positions

Chrysanthemum

Last reported at 2017-Jan-01 07:33 UTC. Time now 2017-Jan-18 04:07 UTC.
Position N 36°11' E 014°39'.
Warning: this ship's position is 16 days out of date.

Length 244 m; draft 13.2 m.

Type: Ship. MMSI: 311015300.

Date/timePositionNaut miles runAvg speedWind from/ knotsBaromVisibWave heightAir tempDewpointWater temp
2017-Jan-01 07:33N 36°11' E 014°39'1313.0
2017-Jan-01 06:33N 36°17' E 014°24'1313.2
2017-Jan-01 05:34N 36°21' E 014°09'1312.9
2017-Jan-01 04:34N 36°26' E 013°54'1313.0
2017-Jan-01 03:33N 36°30' E 013°38'60212.7
2016-Dec-30 04:16N 36°51' E 001°08'16613.1
2016-Dec-29 15:33N 36°19' W 002°15'1312.5
2016-Dec-29 14:32N 36°17' W 002°30'1312.5
2016-Dec-29 13:32N 36°15' W 002°46'11612.5
2016-Dec-29 04:19N 36°01' W 005°08'1013.3
2016-Dec-29 03:33N 35°59' W 005°20'1312.7
2016-Dec-29 02:33N 35°56' W 005°35'1312.9
2016-Dec-29 01:33N 35°54' W 005°51'21411.3
2016-Dec-28 06:33N 37°29' W 009°51'1313.2
2016-Dec-28 05:33N 37°42' W 009°54'1313.1
2016-Dec-28 04:33N 37°54' W 009°59'1313.0
2016-Dec-28 03:33N 38°07' W 010°02'1313.2
2016-Dec-28 02:33N 38°20' W 010°06'1312.9
2016-Dec-28 01:34N 38°33' W 010°09'1313.3
2016-Dec-28 00:33N 38°46' W 010°12'1313.0
2016-Dec-27 23:33N 38°59' W 010°12'1313.1
2016-Dec-27 22:34N 39°12' W 010°12'1312.9
2016-Dec-27 21:34N 39°25' W 010°12'62012.3
2016-Dec-25 19:12N 49°08' W 005°18'812.8
2016-Dec-25 18:33N 49°12' W 005°07'1312.6
2016-Dec-25 17:31N 49°18' W 004°49'3811.9
2016-Dec-25 14:20N 49°37' W 003°59'911.9
2016-Dec-25 13:33N 49°41' W 003°46'1212.5
2016-Dec-25 12:33N 49°47' W 003°29'1313.4
2016-Dec-25 11:33N 49°54' W 003°11'1413.8
2016-Dec-25 10:33N 49°60' W 002°52'1513.5
2016-Dec-25 09:25N 50°03' W 002°28'3512.1
2016-Dec-25 06:30N 50°14' W 001°36'1010.0
2016-Dec-25 05:32N 50°17' W 001°21'10 9.9
2016-Dec-25 04:33N 50°19' W 001°07'2511.5
2016-Dec-25 02:23N 50°26' W 000°29'1112.8
2016-Dec-25 01:31N 50°29' W 000°12'1313.1
2016-Dec-25 00:33N 50°33' E 000°07'1313.3
2016-Dec-24 23:33N 50°36' E 000°27'2812.5
2016-Dec-24 21:17N 50°51' E 001°05'1011.6
2016-Dec-24 20:26N 50°58' E 001°16'1011.4
2016-Dec-24 19:33N 51°05' E 001°28'1212.4
2016-Dec-24 18:33N 51°12' E 001°43'1413.7
2016-Dec-24 17:33N 51°24' E 001°54'1414.1
2016-Dec-24 16:33N 51°35' E 002°09'1413.6
2016-Dec-24 15:33N 51°45' E 002°24'6211.6
2016-Dec-24 10:13N 52°26' E 003°39'910.8
2016-Dec-24 09:21N 52°30' E 003°53'911.6
2016-Dec-24 08:33N 52°30' E 004°08'9 9.2
2016-Dec-24 07:33N 52°29' E 004°23'8 7.9
2016-Dec-24 06:33N 52°28' E 004°36'1 0.9
2016-Dec-24 05:34N 52°28' E 004°37'6 5.7
2016-Dec-24 04:34N 52°26' E 004°46'1 1.3
2016-Dec-24 03:33N 52°24' E 004°46'0 0.0
2016-Dec-24 02:33N 52°24' E 004°46'0 0.0
2016-Dec-24 01:33N 52°24' E 004°46'0 0.0
2016-Dec-24 00:33N 52°24' E 004°46'0 0.0
2016-Dec-23 23:33N 52°24' E 004°46'0 0.0
2016-Dec-23 22:30N 52°24' E 004°46'0 0.0
2016-Dec-23 21:33N 52°24' E 004°46'0 0.0
2016-Dec-23 20:33N 52°24' E 004°46'0 0.0
2016-Dec-23 19:33N 52°24' E 004°46'0 0.0
2016-Dec-23 18:33N 52°24' E 004°46'0 0.0
2016-Dec-23 17:33N 52°24' E 004°46'0 0.0
2016-Dec-23 16:33N 52°24' E 004°46'0 0.0
2016-Dec-23 15:33N 52°24' E 004°46'0 0.0
2016-Dec-23 14:33N 52°24' E 004°46'0 0.0
2016-Dec-23 13:33N 52°24' E 004°46'0 0.0
2016-Dec-23 12:30N 52°24' E 004°46'0 0.0
2016-Dec-23 11:33N 52°24' E 004°46'0 0.0
2016-Dec-23 10:30N 52°24' E 004°46'0 0.0
2016-Dec-23 09:33N 52°24' E 004°46'0 0.0
2016-Dec-23 08:33N 52°24' E 004°46'0 0.0
2016-Dec-23 07:33N 52°24' E 004°46'0 0.0
2016-Dec-23 06:33N 52°24' E 004°46'0 0.0
2016-Dec-23 05:33N 52°24' E 004°46'0 0.0
2016-Dec-23 04:30N 52°24' E 004°46'0 0.0
2016-Dec-23 03:33N 52°24' E 004°46'0 0.0
2016-Dec-23 02:30N 52°24' E 004°46'0 0.0
2016-Dec-23 01:33N 52°24' E 004°46'0 0.0
2016-Dec-23 00:33N 52°24' E 004°46'0 0.0
2016-Dec-22 23:33N 52°24' E 004°46'0 0.0
2016-Dec-22 22:33N 52°24' E 004°46'0 0.0
2016-Dec-22 21:33N 52°24' E 004°46'0 0.0
2016-Dec-22 20:33N 52°24' E 004°46'0 0.0
2016-Dec-22 19:33N 52°24' E 004°46'0 0.0
2016-Dec-22 18:33N 52°24' E 004°46'0 0.0
2016-Dec-22 17:33N 52°24' E 004°46'0 0.0
2016-Dec-22 16:33N 52°24' E 004°46'0 0.0
2016-Dec-22 15:33N 52°24' E 004°46'0 0.0
2016-Dec-22 14:30N 52°24' E 004°46'0 0.0
2016-Dec-22 13:33N 52°24' E 004°46'0 0.0
2016-Dec-22 12:30N 52°24' E 004°46'0 0.0
2016-Dec-22 11:33N 52°24' E 004°46'0 0.0
2016-Dec-22 10:33N 52°24' E 004°46'0 0.0
2016-Dec-22 09:30N 52°24' E 004°46'0 0.0
2016-Dec-22 08:30N 52°24' E 004°46'  

Dump ship's entire track history